sensor_id;sensor_type;location;lat;lon;timestamp;pressure;altitude;pressure_sealevel;temperature
15333;BMP180;7766;51.534;6.722;2023-06-22T00:00:25;101210.59;;;24.31
15333;BMP180;7766;51.534;6.722;2023-06-22T00:01:26;101216.25;;;24.34
15333;BMP180;7766;51.534;6.722;2023-06-22T00:02:27;101211.97;;;24.38
15333;BMP180;7766;51.534;6.722;2023-06-22T00:03:28;101216.56;;;24.43
15333;BMP180;7766;51.534;6.722;2023-06-22T00:04:29;101216.06;;;24.46
15333;BMP180;7766;51.534;6.722;2023-06-22T00:05:30;101219.25;;;24.43
15333;BMP180;7766;51.534;6.722;2023-06-22T00:06:31;101223.06;;;24.47
15333;BMP180;7766;51.534;6.722;2023-06-22T00:07:32;101218.75;;;24.46
15333;BMP180;7766;51.534;6.722;2023-06-22T00:08:33;101231.94;;;24.47
15333;BMP180;7766;51.534;6.722;2023-06-22T00:09:35;101223.03;;;24.42
15333;BMP180;7766;51.534;6.722;2023-06-22T00:10:35;101224.13;;;24.46
15333;BMP180;7766;51.534;6.722;2023-06-22T00:11:37;101223.31;;;24.45
15333;BMP180;7766;51.534;6.722;2023-06-22T00:12:38;101220.78;;;24.29
15333;BMP180;7766;51.534;6.722;2023-06-22T00:13:39;101230.16;;;24.27
15333;BMP180;7766;51.534;6.722;2023-06-22T00:14:40;101233.16;;;24.35
15333;BMP180;7766;51.534;6.722;2023-06-22T00:15:42;101218.69;;;24.36
15333;BMP180;7766;51.534;6.722;2023-06-22T00:16:43;101227.25;;;24.33
15333;BMP180;7766;51.534;6.722;2023-06-22T00:17:45;101226.88;;;24.20
15333;BMP180;7766;51.534;6.722;2023-06-22T00:18:46;101215.63;;;24.23
15333;BMP180;7766;51.534;6.722;2023-06-22T00:19:48;101224.78;;;24.27
15333;BMP180;7766;51.534;6.722;2023-06-22T00:20:56;101223.81;;;24.07
15333;BMP180;7766;51.534;6.722;2023-06-22T00:21:59;101219.44;;;24.01
15333;BMP180;7766;51.534;6.722;2023-06-22T00:23:01;101221.94;;;24.07
15333;BMP180;7766;51.534;6.722;2023-06-22T00:24:02;101215.78;;;24.12
15333;BMP180;7766;51.534;6.722;2023-06-22T00:25:03;101222.00;;;24.17
15333;BMP180;7766;51.534;6.722;2023-06-22T00:26:04;101219.59;;;24.16
15333;BMP180;7766;51.534;6.722;2023-06-22T00:27:05;101223.41;;;23.94
15333;BMP180;7766;51.534;6.722;2023-06-22T00:28:07;101219.50;;;24.06
15333;BMP180;7766;51.534;6.722;2023-06-22T00:29:08;101218.34;;;23.97
15333;BMP180;7766;51.534;6.722;2023-06-22T00:30:10;101224.81;;;24.01
15333;BMP180;7766;51.534;6.722;2023-06-22T00:31:11;101223.72;;;23.97
15333;BMP180;7766;51.534;6.722;2023-06-22T00:32:12;101222.13;;;24.01
15333;BMP180;7766;51.534;6.722;2023-06-22T00:33:13;101225.94;;;24.05
15333;BMP180;7766;51.534;6.722;2023-06-22T00:34:14;101223.03;;;24.11
15333;BMP180;7766;51.534;6.722;2023-06-22T00:35:15;101223.84;;;24.12
15333;BMP180;7766;51.534;6.722;2023-06-22T00:36:16;101228.13;;;24.08
15333;BMP180;7766;51.534;6.722;2023-06-22T00:37:19;101218.75;;;24.10
15333;BMP180;7766;51.534;6.722;2023-06-22T00:38:23;101222.22;;;24.11
15333;BMP180;7766;51.534;6.722;2023-06-22T00:39:24;101222.53;;;24.14
15333;BMP180;7766;51.534;6.722;2023-06-22T00:40:28;101214.97;;;24.11
15333;BMP180;7766;51.534;6.722;2023-06-22T00:41:29;101219.28;;;24.12
15333;BMP180;7766;51.534;6.722;2023-06-22T00:42:31;101223.34;;;24.15
15333;BMP180;7766;51.534;6.722;2023-06-22T00:43:32;101218.50;;;24.17
15333;BMP180;7766;51.534;6.722;2023-06-22T00:44:33;101218.25;;;24.13
15333;BMP180;7766;51.534;6.722;2023-06-22T00:45:34;101214.47;;;24.14
15333;BMP180;7766;51.534;6.722;2023-06-22T00:46:35;101211.53;;;24.16
15333;BMP180;7766;51.534;6.722;2023-06-22T00:47:36;101211.81;;;24.19
15333;BMP180;7766;51.534;6.722;2023-06-22T00:48:39;101219.63;;;24.20
15333;BMP180;7766;51.534;6.722;2023-06-22T00:49:45;101212.63;;;24.19
15333;BMP180;7766;51.534;6.722;2023-06-22T00:50:47;101214.81;;;24.22
15333;BMP180;7766;51.534;6.722;2023-06-22T00:51:51;101207.22;;;24.15
15333;BMP180;7766;51.534;6.722;2023-06-22T00:52:55;101213.72;;;24.18
15333;BMP180;7766;51.534;6.722;2023-06-22T00:53:57;101215.09;;;24.21
15333;BMP180;7766;51.534;6.722;2023-06-22T00:54:59;101214.25;;;24.20
15333;BMP180;7766;51.534;6.722;2023-06-22T00:56:03;101221.25;;;24.21
15333;BMP180;7766;51.534;6.722;2023-06-22T00:57:05;101213.44;;;24.20
15333;BMP180;7766;51.534;6.722;2023-06-22T00:58:09;101208.91;;;24.20
15333;BMP180;7766;51.534;6.722;2023-06-22T00:59:13;101215.34;;;24.24
15333;BMP180;7766;51.534;6.722;2023-06-22T01:00:18;101211.88;;;24.24
15333;BMP180;7766;51.534;6.722;2023-06-22T01:01:20;101207.28;;;24.24
15333;BMP180;7766;51.534;6.722;2023-06-22T01:02:24;101201.13;;;24.24
15333;BMP180;7766;51.534;6.722;2023-06-22T01:03:25;101206.22;;;24.20
15333;BMP180;7766;51.534;6.722;2023-06-22T01:04:36;101208.38;;;24.23
15333;BMP180;7766;51.534;6.722;2023-06-22T01:05:38;101208.38;;;24.23
15333;BMP180;7766;51.534;6.722;2023-06-22T01:06:54;101205.13;;;24.21
15333;BMP180;7766;51.534;6.722;2023-06-22T01:09:22;101193.09;;;24.24
15333;BMP180;7766;51.534;6.722;2023-06-22T01:11:54;101191.16;;;24.19
15333;BMP180;7766;51.534;6.722;2023-06-22T01:13:02;101193.78;;;24.15
15333;BMP180;7766;51.534;6.722;2023-06-22T01:14:35;101188.97;;;24.17
15333;BMP180;7766;51.534;6.722;2023-06-22T01:15:46;101196.22;;;24.16
15333;BMP180;7766;51.534;6.722;2023-06-22T01:16:52;101188.44;;;24.15
15333;BMP180;7766;51.534;6.722;2023-06-22T01:17:57;101191.06;;;24.10
15333;BMP180;7766;51.534;6.722;2023-06-22T01:19:05;101191.31;;;24.08
15333;BMP180;7766;51.534;6.722;2023-06-22T01:20:10;101196.13;;;24.06
15333;BMP180;7766;51.534;6.722;2023-06-22T01:21:17;101185.09;;;24.03
15333;BMP180;7766;51.534;6.722;2023-06-22T01:22:21;101184.31;;;24.02
15333;BMP180;7766;51.534;6.722;2023-06-22T01:23:41;101192.59;;;24.01
15333;BMP180;7766;51.534;6.722;2023-06-22T01:25:11;101190.72;;;24.02
15333;BMP180;7766;51.534;6.722;2023-06-22T01:26:34;101192.06;;;23.99
15333;BMP180;7766;51.534;6.722;2023-06-22T01:27:56;101194.69;;;23.94
15333;BMP180;7766;51.534;6.722;2023-06-22T01:29:04;101192.28;;;23.98
15333;BMP180;7766;51.534;6.722;2023-06-22T01:30:05;101193.09;;;23.98
15333;BMP180;7766;51.534;6.722;2023-06-22T01:31:08;101191.00;;;24.00
15333;BMP180;7766;51.534;6.722;2023-06-22T01:32:10;101191.00;;;24.00
15333;BMP180;7766;51.534;6.722;2023-06-22T01:33:13;101189.91;;;24.01
15333;BMP180;7766;51.534;6.722;2023-06-22T01:34:15;101187.78;;;24.03
15333;BMP180;7766;51.534;6.722;2023-06-22T01:35:18;101190.47;;;24.03
15333;BMP180;7766;51.534;6.722;2023-06-22T01:36:21;101188.31;;;24.00
15333;BMP180;7766;51.534;6.722;2023-06-22T01:37:22;101192.59;;;24.01
15333;BMP180;7766;51.534;6.722;2023-06-22T01:38:23;101194.22;;;24.02
15333;BMP180;7766;51.534;6.722;2023-06-22T01:39:25;101194.22;;;24.02
15333;BMP180;7766;51.534;6.722;2023-06-22T01:40:27;101194.22;;;24.02
15333;BMP180;7766;51.534;6.722;2023-06-22T01:41:30;101192.09;;;24.04
15333;BMP180;7766;51.534;6.722;2023-06-22T01:42:32;101191.28;;;24.03
15333;BMP180;7766;51.534;6.722;2023-06-22T01:43:34;101189.91;;;24.01
15333;BMP180;7766;51.534;6.722;2023-06-22T01:44:37;101189.38;;;23.99
15333;BMP180;7766;51.534;6.722;2023-06-22T01:45:38;101187.47;;;23.95
15333;BMP180;7766;51.534;6.722;2023-06-22T01:46:40;101187.19;;;23.96
15333;BMP180;7766;51.534;6.722;2023-06-22T01:47:41;101193.63;;;23.95
15333;BMP180;7766;51.534;6.722;2023-06-22T01:48:42;101188.25;;;23.95
15333;BMP180;7766;51.534;6.722;2023-06-22T01:49:44;101190.94;;;23.95
15333;BMP180;7766;51.534;6.722;2023-06-22T01:50:45;101190.38;;;23.93
15333;BMP180;7766;51.534;6.722;2023-06-22T01:51:46;101199.81;;;23.96
15333;BMP180;7766;51.534;6.722;2023-06-22T01:52:47;101194.69;;;23.94
15333;BMP180;7766;51.534;6.722;2023-06-22T01:53:48;101187.97;;;23.92
15333;BMP180;7766;51.534;6.722;2023-06-22T01:54:50;101188.50;;;23.94
15333;BMP180;7766;51.534;6.722;2023-06-22T01:55:51;101188.75;;;23.92
15333;BMP180;7766;51.534;6.722;2023-06-22T01:56:52;101178.84;;;23.93
15333;BMP180;7766;51.534;6.722;2023-06-22T01:57:53;101179.59;;;23.88
15333;BMP180;7766;51.534;6.722;2023-06-22T02:00:22;101186.34;;;23.91
15333;BMP180;7766;51.534;6.722;2023-06-22T02:01:40;101191.16;;;23.89
15333;BMP180;7766;51.534;6.722;2023-06-22T02:02:43;101189.28;;;23.89
15333;BMP180;7766;51.534;6.722;2023-06-22T02:03:52;101188.47;;;23.89
15333;BMP180;7766;51.534;6.722;2023-06-22T02:05:00;101186.34;;;23.91
15333;BMP180;7766;51.534;6.722;2023-06-22T02:06:10;101186.59;;;23.89
15333;BMP180;7766;51.534;6.722;2023-06-22T02:07:15;101188.22;;;23.90
15333;BMP180;7766;51.534;6.722;2023-06-22T02:08:28;101183.38;;;23.92
15333;BMP180;7766;51.534;6.722;2023-06-22T02:09:31;101183.38;;;23.92
15333;BMP180;7766;51.534;6.722;2023-06-22T02:10:35;101185.00;;;23.93
15333;BMP180;7766;51.534;6.722;2023-06-22T02:11:37;101181.28;;;23.94
15333;BMP180;7766;51.534;6.722;2023-06-22T02:12:39;101180.19;;;23.95
15333;BMP180;7766;51.534;6.722;2023-06-22T02:13:41;101170.22;;;23.91
15333;BMP180;7766;51.534;6.722;2023-06-22T02:14:44;101178.28;;;23.91
15333;BMP180;7766;51.534;6.722;2023-06-22T02:15:47;101176.41;;;23.91
15333;BMP180;7766;51.534;6.722;2023-06-22T02:16:49;101179.09;;;23.91
15333;BMP180;7766;51.534;6.722;2023-06-22T02:17:51;101180.44;;;23.89
15333;BMP180;7766;51.534;6.722;2023-06-22T02:18:52;101181.25;;;23.89
15333;BMP180;7766;51.534;6.722;2023-06-22T02:19:53;101184.97;;;23.88
15333;BMP180;7766;51.534;6.722;2023-06-22T02:20:54;101180.66;;;23.87
15333;BMP180;7766;51.534;6.722;2023-06-22T02:21:55;101184.28;;;23.77
15333;BMP180;7766;51.534;6.722;2023-06-22T02:22:56;101177.91;;;23.83
15333;BMP180;7766;51.534;6.722;2023-06-22T02:23:58;101183.84;;;23.85
15333;BMP180;7766;51.534;6.722;2023-06-22T02:24:59;101182.78;;;23.86
15333;BMP180;7766;51.534;6.722;2023-06-22T02:26:00;101181.97;;;23.85
15333;BMP180;7766;51.534;6.722;2023-06-22T02:27:02;101186.03;;;23.87
15333;BMP180;7766;51.534;6.722;2023-06-22T02:28:04;101179.06;;;23.87
15333;BMP180;7766;51.534;6.722;2023-06-22T02:29:05;101182.03;;;23.90
15333;BMP180;7766;51.534;6.722;2023-06-22T02:30:07;101179.59;;;23.88
15333;BMP180;7766;51.534;6.722;2023-06-22T02:31:08;101186.03;;;23.87
15333;BMP180;7766;51.534;6.722;2023-06-22T02:32:09;101182.28;;;23.88
15333;BMP180;7766;51.534;6.722;2023-06-22T02:33:11;101191.41;;;23.87
15333;BMP180;7766;51.534;6.722;2023-06-22T02:34:12;101184.94;;;23.84
15333;BMP180;7766;51.534;6.722;2023-06-22T02:35:18;101176.63;;;23.85
15333;BMP180;7766;51.534;6.722;2023-06-22T02:36:19;101169.66;;;23.84
15333;BMP180;7766;51.534;6.722;2023-06-22T02:37:22;101173.69;;;23.87
15333;BMP180;7766;51.534;6.722;2023-06-22T02:38:25;101178.47;;;23.85
15333;BMP180;7766;51.534;6.722;2023-06-22T02:39:27;101174.41;;;23.82
15333;BMP180;7766;51.534;6.722;2023-06-22T02:40:29;101176.31;;;23.82
15333;BMP180;7766;51.534;6.722;2023-06-22T02:41:30;101168.50;;;23.80
15333;BMP180;7766;51.534;6.722;2023-06-22T02:42:31;101175.78;;;23.85
15333;BMP180;7766;51.534;6.722;2023-06-22T02:43:32;101175.78;;;23.85
15333;BMP180;7766;51.534;6.722;2023-06-22T02:44:33;101175.78;;;23.85
15333;BMP180;7766;51.534;6.722;2023-06-22T02:45:34;101172.00;;;23.81
15333;BMP180;7766;51.534;6.722;2023-06-22T02:46:35;101178.91;;;23.77
15333;BMP180;7766;51.534;6.722;2023-06-22T02:47:36;101176.81;;;23.79
15333;BMP180;7766;51.534;6.722;2023-06-22T02:48:37;101172.22;;;23.79
15333;BMP180;7766;51.534;6.722;2023-06-22T02:49:38;101174.13;;;23.79
15333;BMP180;7766;51.534;6.722;2023-06-22T02:50:39;101174.00;;;23.69
15333;BMP180;7766;51.534;6.722;2023-06-22T02:51:45;101171.91;;;23.71
15333;BMP180;7766;51.534;6.722;2023-06-22T02:52:46;101168.13;;;23.72
15333;BMP180;7766;51.534;6.722;2023-06-22T02:53:47;101164.41;;;23.73
15333;BMP180;7766;51.534;6.722;2023-06-22T02:54:48;101171.63;;;23.72
15333;BMP180;7766;51.534;6.722;2023-06-22T02:55:49;101162.53;;;23.73
15333;BMP180;7766;51.534;6.722;2023-06-22T02:56:50;101159.53;;;23.70
15333;BMP180;7766;51.534;6.722;2023-06-22T02:57:51;101165.44;;;23.72
15333;BMP180;7766;51.534;6.722;2023-06-22T02:58:53;101159.53;;;23.70
15333;BMP180;7766;51.534;6.722;2023-06-22T02:59:54;101157.91;;;23.69
15333;BMP180;7766;51.534;6.722;2023-06-22T03:00:56;101157.34;;;23.67
15333;BMP180;7766;51.534;6.722;2023-06-22T03:01:57;101160.31;;;23.66
15333;BMP180;7766;51.534;6.722;2023-06-22T03:02:58;101162.72;;;23.67
15333;BMP180;7766;51.534;6.722;2023-06-22T03:03:59;101156.53;;;23.67
15333;BMP180;7766;51.534;6.722;2023-06-22T03:05:00;101153.00;;;23.61
15333;BMP180;7766;51.534;6.722;2023-06-22T03:06:02;101157.88;;;23.64
15333;BMP180;7766;51.534;6.722;2023-06-22T03:07:03;101159.72;;;23.64
15333;BMP180;7766;51.534;6.722;2023-06-22T03:08:04;101163.75;;;23.61
15333;BMP180;7766;51.534;6.722;2023-06-22T03:09:05;101156.19;;;23.58
15333;BMP180;7766;51.534;6.722;2023-06-22T03:10:10;101158.38;;;23.61
15333;BMP180;7766;51.534;6.722;2023-06-22T03:11:11;101162.69;;;23.62
15333;BMP180;7766;51.534;6.722;2023-06-22T03:12:12;101158.09;;;23.58
15333;BMP180;7766;51.534;6.722;2023-06-22T03:13:13;101158.09;;;23.58
15333;BMP180;7766;51.534;6.722;2023-06-22T03:14:14;101156.47;;;23.57
15333;BMP180;7766;51.534;6.722;2023-06-22T03:15:15;101156.16;;;23.54
15333;BMP180;7766;51.534;6.722;2023-06-22T03:16:18;101152.81;;;23.42
15333;BMP180;7766;51.534;6.722;2023-06-22T03:17:19;101159.78;;;23.43
15333;BMP180;7766;51.534;6.722;2023-06-22T03:18:20;101156.06;;;23.44
15333;BMP180;7766;51.534;6.722;2023-06-22T03:19:23;101153.38;;;23.44
15333;BMP180;7766;51.534;6.722;2023-06-22T03:20:24;101159.78;;;23.43
15333;BMP180;7766;51.534;6.722;2023-06-22T03:21:28;101159.78;;;23.43
15333;BMP180;7766;51.534;6.722;2023-06-22T03:22:29;101164.34;;;23.42
15333;BMP180;7766;51.534;6.722;2023-06-22T03:23:30;101157.09;;;23.43
15333;BMP180;7766;51.534;6.722;2023-06-22T03:24:31;101156.06;;;23.44
15333;BMP180;7766;51.534;6.722;2023-06-22T03:25:32;101154.41;;;23.43
15333;BMP180;7766;51.534;6.722;2023-06-22T03:26:35;101153.38;;;23.44
15333;BMP180;7766;51.534;6.722;2023-06-22T03:27:37;101147.19;;;23.43
15333;BMP180;7766;51.534;6.722;2023-06-22T03:28:38;101140.78;;;23.44
15333;BMP180;7766;51.534;6.722;2023-06-22T03:29:39;101146.94;;;23.45
15333;BMP180;7766;51.534;6.722;2023-06-22T03:30:40;101142.88;;;23.42
15333;BMP180;7766;51.534;6.722;2023-06-22T03:31:41;101141.00;;;23.43
15333;BMP180;7766;51.534;6.722;2023-06-22T03:32:42;101141.00;;;23.43
15333;BMP180;7766;51.534;6.722;2023-06-22T03:33:44;101144.78;;;23.42
15333;BMP180;7766;51.534;6.722;2023-06-22T03:34:45;101145.09;;;23.24
15333;BMP180;7766;51.534;6.722;2023-06-22T03:35:49;101146.28;;;23.33
15333;BMP180;7766;51.534;6.722;2023-06-22T03:36:50;101150.56;;;23.34
15333;BMP180;7766;51.534;6.722;2023-06-22T03:37:51;101143.06;;;23.31
15333;BMP180;7766;51.534;6.722;2023-06-22T03:38:52;101143.28;;;23.30
15333;BMP180;7766;51.534;6.722;2023-06-22T03:39:53;101134.13;;;23.26
15333;BMP180;7766;51.534;6.722;2023-06-22T03:40:54;101133.31;;;23.25
15333;BMP180;7766;51.534;6.722;2023-06-22T03:41:55;101125.81;;;23.27
15333;BMP180;7766;51.534;6.722;2023-06-22T03:42:56;101128.50;;;23.27
15333;BMP180;7766;51.534;6.722;2023-06-22T03:43:57;101132.25;;;23.26
15333;BMP180;7766;51.534;6.722;2023-06-22T03:44:58;101129.78;;;23.20
15333;BMP180;7766;51.534;6.722;2023-06-22T03:45:59;101127.59;;;23.17
15333;BMP180;7766;51.534;6.722;2023-06-22T03:47:00;101129.22;;;23.18
15333;BMP180;7766;51.534;6.722;2023-06-22T03:48:03;101133.31;;;23.05
15333;BMP180;7766;51.534;6.722;2023-06-22T03:49:04;101122.66;;;23.09
15333;BMP180;7766;51.534;6.722;2023-06-22T03:50:05;101120.19;;;23.08
15333;BMP180;7766;51.534;6.722;2023-06-22T03:51:06;101122.69;;;23.14
15333;BMP180;7766;51.534;6.722;2023-06-22T03:52:08;101125.06;;;23.11
15333;BMP180;7766;51.534;6.722;2023-06-22T03:53:09;101129.88;;;23.09
15333;BMP180;7766;51.534;6.722;2023-06-22T03:54:11;101115.97;;;23.12
15333;BMP180;7766;51.534;6.722;2023-06-22T03:55:12;101120.78;;;23.10
15333;BMP180;7766;51.534;6.722;2023-06-22T03:56:13;101119.16;;;23.09
15333;BMP180;7766;51.534;6.722;2023-06-22T03:57:14;101116.22;;;23.10
15333;BMP180;7766;51.534;6.722;2023-06-22T03:58:15;101114.34;;;23.11
15333;BMP180;7766;51.534;6.722;2023-06-22T03:59:16;101108.44;;;23.09
15333;BMP180;7766;51.534;6.722;2023-06-22T04:00:17;101115.97;;;23.12
15333;BMP180;7766;51.534;6.722;2023-06-22T04:01:18;101114.84;;;23.08
15333;BMP180;7766;51.534;6.722;2023-06-22T04:02:19;101122.69;;;23.14
15333;BMP180;7766;51.534;6.722;2023-06-22T04:03:20;101116.06;;;23.17
15333;BMP180;7766;51.534;6.722;2023-06-22T04:04:21;101117.19;;;23.21
15333;BMP180;7766;51.534;6.722;2023-06-22T04:05:22;101120.91;;;23.20
15333;BMP180;7766;51.534;6.722;2023-06-22T04:06:25;101115.00;;;23.18
15333;BMP180;7766;51.534;6.722;2023-06-22T04:07:26;101114.50;;;23.21
15333;BMP180;7766;51.534;6.722;2023-06-22T04:08:26;101104.81;;;23.20
15333;BMP180;7766;51.534;6.722;2023-06-22T04:09:27;101115.06;;;23.23
15333;BMP180;7766;51.534;6.722;2023-06-22T04:10:28;101111.06;;;23.25
15333;BMP180;7766;51.534;6.722;2023-06-22T04:11:29;101103.81;;;23.25
15333;BMP180;7766;51.534;6.722;2023-06-22T04:12:30;101110.28;;;23.29
15333;BMP180;7766;51.534;6.722;2023-06-22T04:13:31;101108.97;;;23.32
15333;BMP180;7766;51.534;6.722;2023-06-22T04:14:32;101099.06;;;23.32
15333;BMP180;7766;51.534;6.722;2023-06-22T04:15:33;101108.97;;;23.32
15333;BMP180;7766;51.534;6.722;2023-06-22T04:16:34;101111.97;;;23.35
15333;BMP180;7766;51.534;6.722;2023-06-22T04:17:35;101110.91;;;23.36
15333;BMP180;7766;51.534;6.722;2023-06-22T04:18:36;101117.94;;;23.42
15333;BMP180;7766;51.534;6.722;2023-06-22T04:19:37;101115.16;;;23.32
15333;BMP180;7766;51.534;6.722;2023-06-22T04:20:38;101113.09;;;23.39
15333;BMP180;7766;51.534;6.722;2023-06-22T04:21:38;101114.72;;;23.45
15333;BMP180;7766;51.534;6.722;2023-06-22T04:22:39;101112.63;;;23.47
15333;BMP180;7766;51.534;6.722;2023-06-22T04:23:40;101112.81;;;23.40
15333;BMP180;7766;51.534;6.722;2023-06-22T04:24:41;101119.88;;;23.46
15333;BMP180;7766;51.534;6.722;2023-06-22T04:25:43;101115.31;;;23.47
15333;BMP180;7766;51.534;6.722;2023-06-22T04:26:44;101118.03;;;23.52
15333;BMP180;7766;51.534;6.722;2023-06-22T04:27:46;101119.59;;;23.48
15333;BMP180;7766;51.534;6.722;2023-06-22T04:28:48;101124.50;;;23.55
15333;BMP180;7766;51.534;6.722;2023-06-22T04:29:56;101121.88;;;23.60
15333;BMP180;7766;51.534;6.722;2023-06-22T04:30:56;101121.34;;;23.63
15333;BMP180;7766;51.534;6.722;2023-06-22T04:31:59;101124.31;;;23.62
15333;BMP180;7766;51.534;6.722;2023-06-22T04:33:03;101126.69;;;23.58
15333;BMP180;7766;51.534;6.722;2023-06-22T04:34:05;101122.44;;;23.62
15333;BMP180;7766;51.534;6.722;2023-06-22T04:35:07;101124.88;;;23.69
15333;BMP180;7766;51.534;6.722;2023-06-22T04:36:08;101135.63;;;23.69
15333;BMP180;7766;51.534;6.722;2023-06-22T04:37:09;101124.34;;;23.67
15333;BMP180;7766;51.534;6.722;2023-06-22T04:38:16;101122.75;;;23.40
15333;BMP180;7766;51.534;6.722;2023-06-22T04:39:17;101129.38;;;23.33
15333;BMP180;7766;51.534;6.722;2023-06-22T04:40:19;101123.47;;;23.31
15333;BMP180;7766;51.534;6.722;2023-06-22T04:41:20;101124.88;;;23.38
15333;BMP180;7766;51.534;6.722;2023-06-22T04:42:26;101128.19;;;23.24
15333;BMP180;7766;51.534;6.722;2023-06-22T04:43:27;101120.50;;;23.32
15333;BMP180;7766;51.534;6.722;2023-06-22T04:44:31;101125.91;;;23.37
15333;BMP180;7766;51.534;6.722;2023-06-22T04:45:32;101125.31;;;23.30
15333;BMP180;7766;51.534;6.722;2023-06-22T04:46:34;101126.50;;;23.39
15333;BMP180;7766;51.534;6.722;2023-06-22T04:47:38;101128.41;;;23.43
15333;BMP180;7766;51.534;6.722;2023-06-22T04:48:40;101123.56;;;23.40
15333;BMP180;7766;51.534;6.722;2023-06-22T04:49:41;101128.72;;;23.47
15333;BMP180;7766;51.534;6.722;2023-06-22T04:50:43;101126.59;;;23.49
15333;BMP180;7766;51.534;6.722;2023-06-22T04:51:45;101122.34;;;23.53
15333;BMP180;7766;51.534;6.722;2023-06-22T04:52:46;101111.09;;;23.55
15333;BMP180;7766;51.534;6.722;2023-06-22T04:53:47;101117.53;;;23.54
15333;BMP180;7766;51.534;6.722;2023-06-22T04:54:48;101110.56;;;23.58
15333;BMP180;7766;51.534;6.722;2023-06-22T04:55:51;101110.34;;;23.60
15333;BMP180;7766;51.534;6.722;2023-06-22T04:56:53;101104.16;;;23.59
15333;BMP180;7766;51.534;6.722;2023-06-22T04:57:57;101112.16;;;23.54
15333;BMP180;7766;51.534;6.722;2023-06-22T04:59:05;101103.31;;;23.54
15333;BMP180;7766;51.534;6.722;2023-06-22T05:00:06;101112.41;;;23.53
15333;BMP180;7766;51.534;6.722;2023-06-22T05:01:13;101115.41;;;23.56
15333;BMP180;7766;51.534;6.722;2023-06-22T05:02:15;101116.44;;;23.55
15333;BMP180;7766;51.534;6.722;2023-06-22T05:03:16;101113.03;;;23.60
15333;BMP180;7766;51.534;6.722;2023-06-22T05:04:19;101120.00;;;23.61
15333;BMP180;7766;51.534;6.722;2023-06-22T05:05:20;101115.44;;;23.61
15333;BMP180;7766;51.534;6.722;2023-06-22T05:06:22;101113.44;;;23.47
15333;BMP180;7766;51.534;6.722;2023-06-22T05:07:25;101116.22;;;23.57
15333;BMP180;7766;51.534;6.722;2023-06-22T05:08:26;101117.56;;;23.59
15333;BMP180;7766;51.534;6.722;2023-06-22T05:09:30;101110.06;;;23.61
15333;BMP180;7766;51.534;6.722;2023-06-22T05:10:31;101116.75;;;23.59
15333;BMP180;7766;51.534;6.722;2023-06-22T05:11:32;101111.16;;;23.60
15333;BMP180;7766;51.534;6.722;2023-06-22T05:12:33;101114.13;;;23.64
15333;BMP180;7766;51.534;6.722;2023-06-22T05:13:34;101111.19;;;23.65
15333;BMP180;7766;51.534;6.722;2023-06-22T05:14:35;101106.38;;;23.67
15333;BMP180;7766;51.534;6.722;2023-06-22T05:15:36;101110.53;;;23.54
15333;BMP180;7766;51.534;6.722;2023-06-22T05:16:42;101115.16;;;23.58
15333;BMP180;7766;51.534;6.722;2023-06-22T05:17:43;101112.47;;;23.58
15333;BMP180;7766;51.534;6.722;2023-06-22T05:18:45;101109.78;;;23.32
15333;BMP180;7766;51.534;6.722;2023-06-22T05:19:46;101116.88;;;23.43
15333;BMP180;7766;51.534;6.722;2023-06-22T05:20:50;101116.38;;;23.46
15333;BMP180;7766;51.534;6.722;2023-06-22T05:21:52;101120.41;;;23.48
15333;BMP180;7766;51.534;6.722;2023-06-22T05:22:53;101123.34;;;23.47
15333;BMP180;7766;51.534;6.722;2023-06-22T05:23:54;101120.41;;;23.48
15333;BMP180;7766;51.534;6.722;2023-06-22T05:24:56;101121.53;;;23.52
15333;BMP180;7766;51.534;6.722;2023-06-22T05:25:57;101120.44;;;23.53
15333;BMP180;7766;51.534;6.722;2023-06-22T05:26:58;101125.59;;;23.54
15333;BMP180;7766;51.534;6.722;2023-06-22T05:27:59;101118.09;;;23.56
15333;BMP180;7766;51.534;6.722;2023-06-22T05:29:02;101115.94;;;23.58
15333;BMP180;7766;51.534;6.722;2023-06-22T05:30:03;101114.06;;;23.59
15333;BMP180;7766;51.534;6.722;2023-06-22T05:31:04;101121.31;;;23.58
15333;BMP180;7766;51.534;6.722;2023-06-22T05:32:06;101114.34;;;23.57
15333;BMP180;7766;51.534;6.722;2023-06-22T05:33:07;101125.91;;;23.58
15333;BMP180;7766;51.534;6.722;2023-06-22T05:34:08;101122.63;;;23.56
15333;BMP180;7766;51.534;6.722;2023-06-22T05:35:09;101123.44;;;23.56
15333;BMP180;7766;51.534;6.722;2023-06-22T05:36:10;101123.44;;;23.56
15333;BMP180;7766;51.534;6.722;2023-06-22T05:37:11;101122.63;;;23.56
15333;BMP180;7766;51.534;6.722;2023-06-22T05:38:13;101122.41;;;23.57
15333;BMP180;7766;51.534;6.722;2023-06-22T05:39:15;101125.91;;;23.58
15333;BMP180;7766;51.534;6.722;2023-06-22T05:40:16;101126.13;;;23.56
15333;BMP180;7766;51.534;6.722;2023-06-22T05:41:17;101123.72;;;23.55
15333;BMP180;7766;51.534;6.722;2023-06-22T05:42:18;101129.31;;;23.54
15333;BMP180;7766;51.534;6.722;2023-06-22T05:43:19;101133.63;;;23.54
15333;BMP180;7766;51.534;6.722;2023-06-22T05:44:20;101131.44;;;23.52
15333;BMP180;7766;51.534;6.722;2023-06-22T05:45:21;101138.19;;;23.54
15333;BMP180;7766;51.534;6.722;2023-06-22T05:46:23;101126.09;;;23.52
15333;BMP180;7766;51.534;6.722;2023-06-22T05:47:24;101130.69;;;23.09
15333;BMP180;7766;51.534;6.722;2023-06-22T05:48:25;101135.19;;;23.25
15333;BMP180;7766;51.534;6.722;2023-06-22T05:49:26;101133.38;;;23.30
15333;BMP180;7766;51.534;6.722;2023-06-22T05:50:33;101133.69;;;23.34
15333;BMP180;7766;51.534;6.722;2023-06-22T05:51:34;101139.59;;;23.36
15333;BMP180;7766;51.534;6.722;2023-06-22T05:52:35;101135.59;;;23.38
15333;BMP180;7766;51.534;6.722;2023-06-22T05:53:36;101135.59;;;23.38
15333;BMP180;7766;51.534;6.722;2023-06-22T05:54:37;101137.22;;;23.39
15333;BMP180;7766;51.534;6.722;2023-06-22T05:55:39;101138.78;;;23.35
15333;BMP180;7766;51.534;6.722;2023-06-22T05:56:41;101135.06;;;23.36
15333;BMP180;7766;51.534;6.722;2023-06-22T05:57:42;101143.50;;;23.23
15333;BMP180;7766;51.534;6.722;2023-06-22T05:58:43;101148.97;;;23.33
15333;BMP180;7766;51.534;6.722;2023-06-22T05:59:44;101148.47;;;23.36
15333;BMP180;7766;51.534;6.722;2023-06-22T06:00:45;101145.78;;;23.36
15333;BMP180;7766;51.534;6.722;2023-06-22T06:01:47;101157.06;;;23.38
15333;BMP180;7766;51.534;6.722;2023-06-22T06:02:50;101156.56;;;23.41
15333;BMP180;7766;51.534;6.722;2023-06-22T06:03:52;101161.09;;;23.40